createdAt,value
2018-05-08T01:57:56.822Z,3.47
2018-05-08T03:36:32.731Z,3.70
2018-05-08T03:43:46.535Z,3.80
2018-05-08T03:47:22.121Z,4.70
2018-05-08T03:54:53.833Z,4.07
2018-05-08T06:37:39.588Z,4.47
2018-05-08T06:40:13.378Z,4.70
2018-05-08T06:42:50.989Z,4.30
2018-05-08T06:45:27.426Z,4.63
2018-05-08T06:48:03.139Z,4.50
2018-05-08T06:50:40.157Z,4.13
2018-05-08T06:53:14.790Z,4.70
2018-05-08T06:55:47.919Z,4.57
2018-05-08T06:58:19.678Z,4.70
2018-05-08T07:00:52.638Z,4.70
2018-05-08T07:03:23.766Z,4.67
2018-05-08T07:05:57.028Z,5.03
2018-05-08T07:08:27.993Z,4.27
2018-05-08T07:10:59.131Z,4.97
2018-05-08T07:13:29.797Z,3.97
2018-05-08T07:16:00.605Z,4.33
2018-05-08T07:18:31.511Z,5.33
2018-05-08T07:21:02.438Z,4.40
2018-05-08T07:23:33.254Z,4.70
2018-05-08T07:26:04.291Z,4.37
2018-05-08T07:28:35.138Z,4.10
2018-05-08T07:31:07.387Z,3.83
2018-05-08T07:33:38.385Z,4.10
2018-05-08T07:36:10.833Z,4.10
2018-05-08T07:38:41.991Z,3.67
2018-05-08T07:41:12.851Z,4.27
2018-05-08T07:43:43.683Z,4.07
2018-05-08T07:46:15.024Z,4.20
2018-05-08T07:48:45.830Z,4.33
2018-05-08T07:51:18.276Z,4.27
2018-05-08T07:53:49.462Z,4.20
2018-05-08T07:56:20.396Z,4.27
2018-05-08T07:58:52.443Z,3.73
2018-05-08T08:01:23.215Z,4.43
2018-05-08T08:03:54.067Z,4.00
2018-05-08T08:06:26.387Z,4.40
2018-05-08T08:08:57.142Z,4.20
2018-05-08T08:11:28.027Z,4.00
2018-05-08T08:14:00.573Z,4.40
2018-05-08T08:16:31.269Z,3.80
2018-05-08T08:19:02.097Z,4.00
2018-05-08T08:21:34.474Z,4.20
2018-05-08T08:24:05.471Z,3.43
2018-05-08T08:26:36.109Z,3.97
2018-05-08T08:29:06.903Z,4.20
2018-05-08T08:31:37.838Z,4.77
2018-05-08T08:34:08.487Z,4.53
2018-05-08T08:36:39.574Z,3.57
2018-05-08T08:39:11.894Z,4.63
2018-05-08T08:41:42.761Z,3.90
2018-05-08T08:44:13.567Z,3.90
2018-05-08T08:46:45.432Z,5.13
2018-05-08T08:49:16.669Z,3.77
2018-05-08T08:51:47.598Z,4.17
2018-05-08T08:54:19.259Z,3.97
2018-05-08T08:56:50.498Z,4.50
2018-05-08T08:59:21.642Z,4.40
2018-05-08T09:01:52.750Z,4.10
2018-05-08T09:04:23.422Z,4.90
2018-05-08T09:06:54.302Z,4.37
2018-05-08T09:09:25.297Z,3.93
2018-05-08T09:11:56.702Z,4.40
2018-05-08T09:14:28.708Z,4.40
2018-05-08T09:17:00.436Z,4.70
2018-05-08T09:19:31.360Z,4.63
2018-05-08T09:22:02.198Z,4.67
2018-05-08T09:24:32.928Z,4.40
2018-05-08T09:27:07.782Z,4.00
2018-05-08T09:29:39.406Z,3.90
2018-05-08T09:32:11.203Z,3.70
2018-05-08T09:34:42.733Z,3.93
2018-05-08T09:37:13.435Z,3.80
2018-05-08T09:39:44.506Z,4.47
2018-05-08T09:42:17.773Z,3.67
2018-05-08T09:44:49.428Z,3.90
2018-05-08T09:47:20.342Z,4.20
2018-05-08T09:49:52.638Z,3.63
2018-05-08T09:52:23.521Z,3.60
2018-05-08T09:54:54.319Z,4.07
2018-05-08T09:57:25.799Z,3.93
2018-05-08T09:59:56.637Z,3.90
2018-05-08T10:02:27.512Z,3.87
2018-05-08T10:04:58.638Z,4.07
2018-05-08T10:07:29.484Z,3.97
2018-05-08T10:10:00.170Z,3.97
2018-05-08T10:12:31.490Z,3.83
2018-05-08T10:15:03.399Z,3.43
2018-05-08T10:17:34.353Z,3.47
2018-05-08T10:20:05.238Z,3.37
2018-05-08T10:22:36.350Z,3.57
2018-05-08T10:25:07.173Z,3.47
2018-05-08T10:27:38.551Z,3.47
2018-05-08T10:30:09.672Z,3.70
2018-05-08T10:32:40.597Z,3.70
2018-05-08T10:35:11.538Z,3.30
2018-05-08T10:37:43.197Z,3.27
2018-05-08T10:40:14.272Z,3.47
2018-05-08T10:42:47.009Z,4.00
2018-05-08T10:45:18.059Z,3.30
2018-05-08T10:47:48.792Z,3.80
2018-05-08T10:50:19.552Z,3.50
2018-05-08T10:52:58.532Z,3.80
2018-05-08T10:55:31.023Z,3.70
2018-05-08T10:58:01.871Z,3.53
2018-05-08T11:00:33.766Z,3.53
2018-05-08T11:03:04.729Z,3.43
2018-05-08T11:05:36.553Z,3.70
2018-05-08T11:08:08.048Z,3.80
2018-05-08T11:10:39.197Z,3.40
2018-05-08T11:13:10.223Z,3.63
2018-05-08T11:15:43.283Z,3.43
2018-05-08T11:18:15.315Z,3.83
2018-05-08T11:20:48.077Z,3.10
2018-05-08T11:23:19.649Z,4.03
2018-05-08T11:25:50.835Z,3.17
2018-05-08T11:28:21.515Z,3.60
2018-05-08T11:30:52.428Z,3.20
2018-05-08T11:33:24.405Z,3.43
2018-05-08T11:35:55.634Z,3.30
2018-05-08T11:38:26.973Z,3.60
2018-05-08T11:40:58.007Z,3.47
2018-05-08T11:43:28.933Z,3.53
2018-05-08T11:45:59.719Z,3.77
2018-05-08T11:48:31.351Z,3.60
2018-05-08T11:51:01.860Z,3.30
2018-05-08T11:53:33.531Z,3.00
2018-05-08T11:56:05.963Z,3.30
2018-05-08T11:58:36.789Z,3.07
2018-05-08T12:01:08.440Z,3.03
2018-05-08T12:03:42.163Z,3.20
2018-05-08T12:06:12.909Z,3.00
2018-05-08T12:08:43.883Z,3.37
2018-05-08T12:11:14.699Z,3.07
2018-05-08T12:13:46.096Z,3.03
2018-05-08T12:16:16.919Z,3.00
2018-05-08T12:18:47.738Z,2.80
2018-05-08T12:21:20.019Z,2.50
2018-05-08T12:23:51.163Z,2.40
2018-05-08T12:26:22.091Z,2.60
2018-05-08T12:28:55.164Z,2.60
2018-05-08T12:31:26.166Z,2.50
2018-05-08T12:33:57.076Z,2.43
2018-05-08T12:36:28.567Z,2.50
2018-05-08T12:44:59.862Z,2.40
2018-05-08T12:47:30.724Z,3.03
2018-05-08T12:50:01.650Z,2.47
2018-05-08T12:52:33.699Z,2.67
2018-05-08T12:55:04.451Z,2.80
2018-05-08T12:57:35.298Z,2.30
2018-05-08T13:00:06.423Z,2.53
2018-05-08T13:02:37.587Z,2.27
2018-05-08T13:05:08.349Z,2.43
2018-05-08T13:07:39.474Z,2.50
2018-05-08T13:10:10.284Z,2.57
2018-05-08T13:12:41.106Z,2.50
2018-05-08T13:15:11.870Z,2.50
2018-05-08T13:17:43.051Z,2.63
2018-05-08T13:20:14.058Z,2.60
2018-05-08T13:22:46.365Z,2.10
2018-05-08T13:25:17.132Z,2.40
2018-05-08T13:27:54.684Z,2.63
2018-05-08T13:30:30.287Z,2.60
2018-05-08T13:33:14.012Z,2.80
2018-05-08T13:35:50.565Z,2.70
2018-05-08T13:38:22.142Z,2.60
2018-05-08T13:40:54.235Z,2.50
2018-05-08T13:43:25.062Z,2.30
2018-05-08T13:45:57.446Z,2.83
2018-05-08T13:48:28.248Z,2.53
2018-05-08T13:51:02.889Z,2.60
2018-05-08T13:53:34.524Z,3.17
2018-05-08T13:56:06.611Z,3.13
2018-05-08T13:58:40.863Z,2.77
2018-05-08T14:01:11.988Z,2.63
2018-05-08T14:03:45.119Z,3.03
2018-05-08T14:06:15.928Z,2.90
2018-05-08T14:08:47.041Z,2.83
2018-05-08T14:11:19.356Z,2.90
2018-05-08T14:13:50.473Z,2.80
2018-05-08T14:16:21.266Z,2.80
2018-05-08T14:18:52.584Z,2.70
2018-05-08T14:21:25.197Z,2.70
2018-05-08T14:23:55.855Z,2.60
2018-05-08T14:26:27.038Z,2.73
2018-05-08T14:28:58.851Z,3.33
2018-05-08T14:31:29.805Z,2.90
2018-05-08T14:34:00.642Z,3.17
2018-05-08T14:36:31.371Z,2.63
2018-05-08T14:39:02.713Z,2.97
2018-05-08T14:41:33.653Z,2.73
2018-05-08T14:44:04.754Z,2.73
2018-05-08T14:46:35.781Z,2.70
2018-05-08T14:49:06.627Z,3.20
2018-05-08T14:51:37.518Z,2.80
2018-05-08T14:54:08.903Z,2.87
2018-05-08T14:56:41.138Z,2.57
2018-05-08T14:59:12.230Z,2.60
2018-05-08T15:01:44.110Z,2.67
2018-05-08T15:04:14.873Z,2.50
2018-05-08T15:06:52.485Z,2.27
2018-05-08T15:09:24.501Z,2.67
2018-05-08T15:12:13.316Z,2.70
2018-05-08T15:14:56.976Z,2.50
2018-05-08T15:17:33.154Z,2.53
2018-05-08T15:20:04.766Z,3.07
2018-05-08T15:22:36.418Z,2.93
2018-05-08T15:25:07.164Z,2.50
2018-05-08T15:27:37.991Z,2.87
2018-05-08T15:30:11.190Z,2.70
2018-05-08T15:32:43.579Z,2.60
2018-05-08T15:35:14.590Z,2.60
2018-05-08T15:37:45.768Z,2.93
2018-05-08T15:40:16.604Z,2.50
2018-05-08T15:42:47.191Z,2.47
2018-05-08T15:45:24.364Z,2.40
2018-05-08T15:48:02.477Z,2.87
2018-05-08T15:50:34.113Z,2.60
2018-05-08T15:53:05.305Z,2.53
2018-05-08T15:55:36.229Z,2.20
2018-05-08T15:58:07.174Z,2.40
2018-05-08T16:00:38.191Z,2.70
2018-05-08T16:03:13.013Z,3.03
2018-05-08T16:05:43.935Z,2.50
2018-05-08T16:08:14.722Z,2.50
2018-05-08T16:10:45.832Z,3.10
2018-05-08T16:13:17.716Z,2.93
2018-05-08T16:15:50.189Z,3.50
2018-05-08T16:18:21.342Z,2.83
2018-05-08T16:20:52.838Z,2.70
2018-05-08T16:23:24.198Z,3.00
2018-05-08T16:25:55.038Z,2.50
2018-05-08T16:28:26.359Z,2.60
2018-05-08T16:30:57.258Z,2.53
2018-05-08T16:33:28.579Z,2.43
2018-05-08T16:35:59.469Z,2.30
2018-05-08T16:38:30.238Z,2.67
2018-05-08T16:41:01.830Z,2.60
2018-05-08T16:43:34.167Z,2.80
2018-05-08T16:46:05.033Z,2.60
2018-05-08T16:48:36.851Z,2.40
2018-05-08T16:51:07.733Z,2.80
2018-05-08T16:53:38.628Z,2.60
2018-05-08T16:56:09.597Z,2.60
2018-05-08T16:58:40.768Z,3.23
2018-05-08T17:01:11.735Z,2.70
2018-05-08T17:03:42.806Z,2.70
2018-05-08T17:06:13.439Z,2.83
2018-05-08T17:08:44.243Z,2.73
2018-05-08T17:11:15.562Z,2.47
2018-05-08T17:13:46.535Z,3.00
2018-05-08T17:16:17.317Z,2.53
2018-05-08T17:18:48.509Z,2.80
2018-05-08T17:21:19.707Z,3.10
2018-05-08T17:23:51.523Z,2.93
2018-05-08T17:26:22.574Z,3.43
2018-05-08T17:28:53.466Z,3.00
2018-05-08T17:31:24.423Z,3.13
2018-05-08T17:33:55.365Z,3.30
2018-05-08T17:36:31.115Z,3.03
2018-05-08T17:39:02.852Z,2.80
2018-05-08T17:41:33.770Z,2.83
2018-05-08T17:44:14.693Z,3.20
2018-05-08T17:46:51.668Z,2.87
2018-05-08T17:49:33.222Z,3.10
2018-05-08T17:52:15.334Z,2.90
2018-05-08T17:54:55.543Z,2.73
2018-05-08T17:57:35.392Z,3.20
2018-05-08T18:00:08.677Z,3.00
2018-05-08T18:02:40.039Z,3.33
2018-05-08T18:29:12.648Z,3.20
2018-05-08T18:31:46.350Z,2.70
2018-05-08T18:34:18.560Z,3.17
2018-05-08T18:36:50.559Z,2.83
2018-05-08T18:39:21.355Z,3.00
2018-05-08T18:41:52.203Z,2.83
2018-05-08T18:44:23.047Z,3.00
2018-05-08T18:46:53.922Z,3.53
2018-05-08T18:49:24.966Z,2.70
2018-05-08T18:51:55.863Z,3.40
2018-05-08T18:54:27.136Z,3.23
2018-05-08T18:56:57.726Z,3.17
2018-05-08T18:59:28.452Z,2.87
2018-05-08T19:01:59.411Z,3.30
2018-05-08T19:04:30.794Z,3.53
2018-05-08T19:07:03.223Z,3.30
2018-05-08T19:09:34.013Z,3.00
2018-05-08T19:12:04.819Z,3.37
2018-05-08T19:14:35.737Z,3.20
2018-05-08T19:17:06.503Z,3.40
2018-05-08T19:20:11.141Z,3.47
2018-05-08T19:22:41.887Z,3.47
2018-05-08T19:25:12.999Z,3.53
2018-05-08T19:27:43.761Z,3.10
2018-05-08T19:30:19.596Z,3.07
2018-05-08T19:32:50.523Z,3.27
2018-05-08T19:35:26.307Z,3.80
2018-05-08T19:38:08.800Z,3.57
2018-05-08T19:40:40.931Z,3.60
2018-05-08T19:43:12.382Z,3.33
2018-05-08T19:45:43.366Z,3.37
2018-05-08T19:48:14.292Z,2.63
2018-05-08T19:50:45.063Z,3.20
2018-05-08T19:53:16.719Z,3.20
2018-05-08T19:55:47.755Z,3.50
2018-05-08T19:58:20.107Z,3.53
2018-05-08T20:00:51.830Z,2.80
2018-05-08T20:03:22.826Z,2.90
2018-05-08T20:05:53.575Z,3.00
2018-05-08T20:08:25.832Z,2.73
2018-05-08T20:10:56.678Z,3.10
2018-05-08T20:13:27.575Z,3.00
2018-05-08T20:15:58.578Z,2.63
2018-05-08T20:18:29.477Z,2.87
2018-05-08T20:21:00.491Z,3.03
2018-05-08T20:23:31.569Z,2.80
2018-05-08T20:26:02.607Z,3.30
2018-05-08T20:28:33.475Z,3.63
2018-05-08T20:31:04.447Z,3.70
2018-05-08T20:33:36.199Z,3.37
2018-05-08T20:36:07.224Z,3.40
2018-05-08T20:38:38.887Z,3.57
2018-05-08T20:41:09.587Z,3.43
2018-05-08T20:43:40.287Z,2.80
2018-05-08T20:46:11.687Z,3.37
2018-05-08T20:48:42.644Z,3.10
2018-05-08T20:51:13.666Z,2.97
2018-05-08T20:53:44.486Z,3.17
2018-05-08T20:56:15.365Z,2.97
2018-05-08T20:58:46.208Z,3.40
2018-05-08T21:01:17.251Z,3.60
2018-05-08T21:03:48.276Z,3.50
2018-05-08T21:06:19.012Z,3.80
2018-05-08T21:08:50.307Z,3.87
2018-05-08T21:11:21.035Z,3.93
2018-05-08T21:13:52.591Z,3.80
2018-05-08T21:16:24.545Z,3.50
2018-05-08T21:18:55.159Z,3.60
2018-05-08T21:21:26.075Z,3.00
2018-05-08T21:23:57.155Z,3.80
2018-05-08T21:26:27.930Z,3.80
2018-05-08T21:29:01.078Z,3.70
2018-05-08T21:31:34.229Z,3.63
2018-05-08T21:34:05.255Z,3.77
2018-05-08T21:36:36.156Z,3.13
2018-05-08T21:39:07.559Z,4.10
2018-05-08T21:41:38.976Z,3.90
2018-05-08T21:44:10.558Z,4.07
2018-05-08T21:46:41.404Z,3.80
2018-05-08T21:49:13.195Z,3.90
2018-05-08T21:51:44.099Z,5.20
2018-05-08T21:54:17.951Z,5.60
2018-05-08T21:56:48.992Z,4.73
2018-05-08T21:59:19.573Z,4.63
2018-05-08T22:01:50.630Z,5.20
2018-05-08T22:04:21.951Z,5.90
2018-05-08T22:06:52.849Z,5.17
2018-05-08T22:09:26.843Z,5.37
2018-05-08T22:11:59.448Z,4.43
2018-05-08T22:14:30.374Z,4.30
2018-05-08T22:17:01.507Z,4.00
2018-05-08T22:19:33.629Z,3.97
2018-05-08T22:22:04.964Z,4.10
2018-05-08T22:24:36.075Z,4.40
2018-05-08T22:27:07.257Z,4.70
2018-05-08T22:29:38.280Z,4.73
2018-05-08T22:32:09.633Z,5.00
2018-05-08T22:34:40.727Z,5.00
2018-05-08T22:37:12.118Z,4.50
2018-05-08T22:39:43.328Z,4.50
2018-05-08T22:42:14.923Z,4.40
2018-05-08T22:44:46.559Z,4.57
2018-05-08T22:47:18.043Z,4.60
2018-05-08T22:49:49.890Z,4.30
2018-05-08T22:52:20.546Z,4.40
2018-05-08T22:54:52.103Z,4.87
2018-05-08T22:57:22.897Z,4.30
2018-05-08T22:59:54.497Z,4.70
2018-05-08T23:02:25.494Z,4.57
2018-05-08T23:04:57.452Z,5.07
2018-05-08T23:07:28.746Z,5.20
2018-05-08T23:10:00.271Z,5.13
2018-05-08T23:12:31.083Z,4.80
2018-05-08T23:15:01.893Z,5.10
2018-05-08T23:17:33.198Z,4.90
2018-05-08T23:20:04.173Z,4.83
2018-05-08T23:22:35.335Z,4.90
2018-05-08T23:25:05.854Z,4.73
2018-05-08T23:27:37.368Z,4.80
2018-05-08T23:30:07.994Z,4.20
2018-05-08T23:32:39.658Z,4.90
2018-05-08T23:35:10.563Z,5.27
2018-05-08T23:37:41.576Z,4.57
2018-05-08T23:40:12.770Z,4.87
2018-05-08T23:42:43.377Z,5.43
2018-05-08T23:45:14.349Z,5.00
2018-05-08T23:47:45.183Z,5.13
2018-05-08T23:50:15.879Z,5.00
2018-05-08T23:52:46.743Z,5.50
2018-05-08T23:55:18.226Z,5.20
2018-05-08T23:57:49.551Z,5.20
